Time;durP1;ratioP1;P1;durP2;ratioP2;P2;SDS_P1;SDS_P2;PMS_P1;PMS_P2;Temp;Humidity;BMP_temperature;BMP_pressure;BME280_temperature;BME280_humidity;BME280_pressure;Samples;Min_cycle;Max_cycle;Signal;HPM_P1;HPM_P2
2022/12/15 00:38:46;;;;;;;27.92;7.10;;;16.20;99.90;;;;;;4863389;29;20045;-93
2022/12/15 00:41:17;;;;;;;29.17;6.15;;;16.20;99.90;;;;;;4848246;29;20108;-92
2022/12/15 00:43:47;;;;;;;24.63;5.97;;;16.30;99.90;;;;;;4848320;29;20064;-93
2022/12/15 00:48:59;;;;;;;15.75;5.03;;;16.30;99.90;;;;;;4863551;29;20035;-93
2022/12/15 01:21:45;;;;;;;16.70;6.35;;;16.80;99.90;;;;;;4848139;29;20037;-93
2022/12/15 01:24:12;;;;;;;20.67;7.05;;;16.80;99.90;;;;;;4832652;29;20045;-94
2022/12/15 01:26:38;;;;;;;18.35;6.40;;;17.00;99.90;;;;;;4832731;29;20029;-93
2022/12/15 01:29:05;;;;;;;20.52;7.13;;;17.00;99.90;;;;;;4847944;29;20440;-93
2022/12/15 01:31:35;;;;;;;19.83;7.18;;;17.10;99.90;;;;;;4832548;29;20025;-92
2022/12/15 01:34:02;;;;;;;16.90;7.35;;;17.20;99.90;;;;;;4847752;29;20476;-94
2022/12/15 01:36:31;;;;;;;27.02;8.60;;;17.30;99.90;;;;;;4832551;29;20029;-92
2022/12/15 01:38:58;;;;;;;24.60;7.80;;;17.30;99.90;;;;;;4847579;29;20025;-94
2022/12/15 01:41:25;;;;;;;20.90;8.05;;;17.30;99.90;;;;;;4832455;29;20108;-94
2022/12/15 01:43:51;;;;;;;24.33;8.40;;;17.40;99.90;;;;;;4847589;29;20517;-93
2022/12/15 01:46:23;;;;;;;15.98;7.50;;;17.30;99.90;;;;;;4832299;29;20116;-94
2022/12/15 01:49:10;;;;;;;20.98;8.43;;;17.40;99.90;;;;;;4832290;29;20052;-94
2022/12/15 01:51:40;;;;;;;23.38;8.20;;;17.40;99.90;;;;;;4832498;29;20041;-95
2022/12/15 01:54:20;;;;;;;23.70;9.10;;;17.40;99.90;;;;;;4832125;29;20041;-90
2022/12/15 01:56:50;;;;;;;22.02;8.05;;;17.30;99.90;;;;;;4847296;29;20038;-93
2022/12/15 01:59:27;;;;;;;17.92;8.13;;;17.30;99.90;;;;;;4847373;29;20034;-91
2022/12/15 02:01:54;;;;;;;29.50;9.00;;;17.40;99.90;;;;;;4832111;29;20034;-93
2022/12/15 02:04:24;;;;;;;28.52;9.05;;;17.30;99.90;;;;;;4831923;29;20044;-93
2022/12/15 02:06:51;;;;;;;24.90;8.45;;;17.40;99.90;;;;;;4854308;29;20506;-92
2022/12/15 02:09:20;;;;;;;23.42;9.10;;;17.40;99.90;;;;;;4850490;29;20049;-92
2022/12/15 02:11:56;;;;;;;25.38;8.23;;;17.30;99.90;;;;;;4850402;29;20124;-91
2022/12/15 02:14:45;;;;;;;20.95;8.57;;;17.40;99.90;;;;;;4850140;29;20033;-93
2022/12/15 02:17:24;;;;;;;23.10;8.18;;;17.40;99.90;;;;;;4850036;29;20060;-93
2022/12/15 02:20:28;;;;;;;27.75;9.15;;;17.30;99.90;;;;;;4850076;29;20109;-91
2022/12/15 02:23:23;;;;;;;29.73;8.52;;;17.30;99.90;;;;;;4850170;29;20039;-94
2022/12/15 02:26:07;;;;;;;21.08;7.93;;;17.20;99.90;;;;;;4849866;29;20404;-94
2022/12/15 02:28:58;;;;;;;35.47;7.97;;;17.20;99.90;;;;;;4849956;29;20116;-93
2022/12/15 02:31:51;;;;;;;26.27;7.57;;;17.10;99.90;;;;;;4849986;29;20044;-93
2022/12/15 02:34:31;;;;;;;35.30;7.68;;;17.10;99.90;;;;;;4849889;29;20033;-92
2022/12/15 02:37:05;;;;;;;30.73;8.85;;;17.00;99.90;;;;;;4849861;29;20032;-93
2022/12/15 02:39:35;;;;;;;29.40;7.93;;;16.90;99.90;;;;;;4849903;29;20088;-93
2022/12/15 02:42:01;;;;;;;35.78;8.20;;;16.80;99.90;;;;;;4849917;29;20074;-92
2022/12/15 02:44:42;;;;;;;32.20;7.07;;;16.80;99.90;;;;;;4849642;29;20037;-92
2022/12/15 02:47:44;;;;;;;32.10;7.95;;;16.80;99.90;;;;;;4849885;29;20036;-94
2022/12/15 02:50:20;;;;;;;35.17;7.00;;;16.80;99.90;;;;;;4849617;29;20070;-93
2022/12/15 02:52:47;;;;;;;27.55;6.82;;;16.80;99.90;;;;;;4849401;29;20411;-92
2022/12/15 02:55:45;;;;;;;30.80;7.78;;;16.60;99.90;;;;;;4849696;29;20029;-93
2022/12/15 02:58:26;;;;;;;21.77;5.90;;;16.50;99.90;;;;;;4849574;29;20037;-92
2022/12/15 03:01:08;;;;;;;26.33;5.65;;;16.20;99.90;;;;;;4849529;29;20398;-92
2022/12/15 03:03:36;;;;;;;10.13;4.45;;;15.80;99.90;;;;;;4849333;29;20035;-93
2022/12/15 03:06:04;;;;;;;12.10;4.80;;;15.40;99.90;;;;;;4849005;29;20498;-93
2022/12/15 03:08:34;;;;;;;13.05;4.40;;;15.10;99.90;;;;;;4848394;29;20112;-94
2022/12/15 03:11:01;;;;;;;13.13;3.88;;;14.90;99.90;;;;;;4848808;29;20037;-92
2022/12/15 03:13:28;;;;;;;8.90;3.80;;;14.60;99.90;;;;;;4848427;29;20490;-93
2022/12/15 03:15:57;;;;;;;8.98;3.97;;;14.50;99.90;;;;;;4863904;29;20037;-92
2022/12/15 03:18:23;;;;;;;9.02;3.40;;;14.30;99.90;;;;;;4847256;29;20029;-93
2022/12/15 03:20:50;;;;;;;8.98;3.30;;;14.20;99.90;;;;;;4863637;29;20044;-92
2022/12/15 03:23:17;;;;;;;9.75;3.60;;;14.10;99.90;;;;;;4848228;29;20060;-93
2022/12/15 03:25:45;;;;;;;10.15;3.83;;;14.10;99.90;;;;;;4848244;29;20499;-92
2022/12/15 03:28:11;;;;;;;6.47;3.10;;;14.00;99.90;;;;;;4848283;29;20060;-93
2022/12/15 03:30:38;;;;;;;5.55;3.08;;;13.90;99.90;;;;;;4863737;29;20040;-92
2022/12/15 03:33:17;;;;;;;7.97;3.10;;;13.90;99.90;;;;;;4848650;29;20479;-93
2022/12/15 03:35:44;;;;;;;12.18;2.97;;;13.80;99.90;;;;;;4863461;29;20170;-92
2022/12/15 03:38:14;;;;;;;5.13;2.83;;;13.90;99.90;;;;;;4848182;29;20447;-91
2022/12/15 03:40:43;;;;;;;10.52;2.58;;;13.90;99.90;;;;;;4847983;29;20025;-92
2022/12/15 03:43:13;;;;;;;4.55;2.45;;;13.90;99.90;;;;;;4848108;29;20057;-92
2022/12/15 03:45:40;;;;;;;7.75;2.83;;;13.90;99.90;;;;;;4847876;29;20045;-92
2022/12/15 03:48:06;;;;;;;4.97;2.80;;;13.90;99.90;;;;;;4847965;29;20036;-93
2022/12/15 03:50:36;;;;;;;12.73;3.00;;;13.90;99.90;;;;;;4863484;29;20029;-92
2022/12/15 03:53:04;;;;;;;10.77;3.20;;;13.90;99.90;;;;;;4848127;29;20025;-92
2022/12/15 03:55:30;;;;;;;13.52;3.05;;;14.00;99.90;;;;;;4847963;29;20040;-92
2022/12/15 03:57:58;;;;;;;13.00;3.17;;;14.00;99.90;;;;;;4847848;29;20121;-93
2022/12/15 04:00:25;;;;;;;11.77;3.58;;;14.00;99.90;;;;;;4847888;29;20037;-92
2022/12/15 04:02:58;;;;;;;11.70;3.20;;;14.00;99.90;;;;;;4847785;29;20032;-93
2022/12/15 04:05:32;;;;;;;14.25;3.30;;;14.00;99.90;;;;;;4863175;29;20041;-94
2022/12/15 04:08:00;;;;;;;10.55;3.20;;;14.00;99.90;;;;;;4774349;29;1735429;-92
2022/12/15 04:10:29;;;;;;;9.40;3.72;;;13.90;99.90;;;;;;4830243;29;20038;-92
2022/12/15 04:13:07;;;;;;;10.80;3.40;;;13.90;99.90;;;;;;4830138;29;20037;-93
2022/12/15 04:15:36;;;;;;;12.07;4.07;;;13.90;99.90;;;;;;4845338;29;20040;-91
2022/12/15 04:18:06;;;;;;;11.57;3.33;;;13.90;99.90;;;;;;4830224;29;20037;-92
2022/12/15 04:20:32;;;;;;;10.45;3.33;;;13.80;99.90;;;;;;4830272;29;20033;-91
2022/12/15 04:23:02;;;;;;;18.13;3.80;;;13.80;99.90;;;;;;4829993;29;20085;-93
2022/12/15 05:31:54;;;;;;;9.73;3.80;;;14.10;99.90;;;;;;4866367;29;20486;-95
2022/12/15 05:34:30;;;;;;;9.93;3.30;;;14.10;99.90;;;;;;4851110;29;20483;-95
2022/12/15 05:36:59;;;;;;;21.60;4.72;;;14.00;99.90;;;;;;4851309;29;20052;-93
2022/12/15 05:39:26;;;;;;;12.65;4.10;;;14.10;99.90;;;;;;4850972;29;20128;-93
2022/12/15 05:41:54;;;;;;;14.20;3.75;;;14.00;99.90;;;;;;4849749;29;20064;-92
2022/12/15 05:44:21;;;;;;;14.70;3.38;;;14.00;99.90;;;;;;4850711;29;20052;-92
2022/12/15 05:46:48;;;;;;;12.90;3.85;;;14.00;99.90;;;;;;4850628;29;20064;-94
2022/12/15 05:49:16;;;;;;;18.25;4.82;;;14.00;99.90;;;;;;4850806;29;20036;-95
2022/12/15 05:51:46;;;;;;;11.75;3.90;;;13.90;99.90;;;;;;4850740;29;20123;-91
2022/12/15 05:54:16;;;;;;;15.75;3.75;;;13.90;99.90;;;;;;4847948;29;20021;-91
2022/12/15 05:56:43;;;;;;;15.52;3.75;;;13.90;99.90;;;;;;4831952;29;20026;-92
2022/12/15 05:59:10;;;;;;;12.18;3.40;;;13.90;99.90;;;;;;4839180;29;20491;-94
2022/12/15 06:01:36;;;;;;;15.32;3.85;;;13.80;99.90;;;;;;4847329;29;20494;-93
2022/12/15 06:04:03;;;;;;;12.20;4.10;;;13.80;99.90;;;;;;4847182;29;20120;-92
2022/12/15 06:06:30;;;;;;;14.75;4.15;;;13.80;99.90;;;;;;4846335;29;20045;-92
2022/12/15 06:08:57;;;;;;;12.98;4.55;;;13.80;99.90;;;;;;4847228;29;20057;-91
2022/12/15 06:11:23;;;;;;;11.02;4.15;;;13.80;99.90;;;;;;4847586;29;20037;-93
2022/12/15 06:13:49;;;;;;;17.38;4.38;;;13.80;99.90;;;;;;4847331;29;20026;-92
2022/12/15 06:16:19;;;;;;;11.55;5.05;;;13.80;99.90;;;;;;4878117;29;20093;-92
2022/12/15 06:18:54;;;;;;;17.90;5.47;;;13.80;99.90;;;;;;4862347;29;20101;-90
2022/12/15 06:21:28;;;;;;;14.55;5.07;;;13.90;99.90;;;;;;4877948;29;20108;-91
2022/12/15 06:23:55;;;;;;;14.82;4.93;;;13.90;99.90;;;;;;4846906;29;20487;-92
2022/12/15 06:26:27;;;;;;;21.63;5.05;;;13.90;99.90;;;;;;4877665;29;20037;-92
2022/12/15 07:47:20;;;;;;;12.82;8.25;;;15.60;99.90;;;;;;5928333;23;20805;31
2022/12/15 13:03:40;;;;;;;17.15;8.52;;;18.50;99.90;;;;;;5061702;23;20073;-93
2022/12/15 13:10:18;;;;;;;14.52;7.03;;;18.40;99.90;;;;;;4972082;23;20145;-94
2022/12/15 13:12:58;;;;;;;16.35;7.30;;;18.40;99.90;;;;;;4831958;29;20045;-92
2022/12/15 13:15:28;;;;;;;16.88;6.78;;;18.30;99.90;;;;;;4793124;29;20072;-92
2022/12/15 13:18:15;;;;;;;19.77;7.55;;;18.40;99.90;;;;;;4779704;29;20084;-94
2022/12/15 13:20:43;;;;;;;20.15;7.45;;;18.20;99.90;;;;;;4779174;29;20517;-93
2022/12/15 13:23:18;;;;;;;19.25;7.97;;;18.30;99.90;;;;;;4778165;29;20033;-93
2022/12/15 13:25:57;;;;;;;16.40;7.95;;;18.30;99.90;;;;;;4777883;29;20119;-92
2022/12/15 13:28:35;;;;;;;19.80;6.65;;;18.30;99.90;;;;;;4777875;29;20035;-91
2022/12/15 13:31:17;;;;;;;18.15;6.50;;;18.30;99.90;;;;;;4778211;29;20077;-92
2022/12/15 13:33:49;;;;;;;17.15;6.43;;;18.10;99.90;;;;;;4792624;29;20038;-90
2022/12/15 13:36:36;;;;;;;16.40;6.40;;;18.00;99.90;;;;;;4777828;29;20139;-92
2022/12/15 13:39:04;;;;;;;17.73;6.28;;;17.90;99.90;;;;;;4777631;29;20062;-92
2022/12/15 13:41:32;;;;;;;18.15;6.57;;;17.80;99.90;;;;;;4778325;29;20043;-92
2022/12/15 13:44:00;;;;;;;10.98;6.30;;;17.80;99.90;;;;;;4792455;29;20100;-95
2022/12/15 13:46:30;;;;;;;11.88;6.20;;;17.70;99.90;;;;;;4796997;29;20067;-91
2022/12/15 13:49:12;;;;;;;14.05;6.60;;;17.70;99.90;;;;;;4829649;29;20402;-92
2022/12/15 13:51:44;;;;;;;15.32;6.50;;;17.60;99.90;;;;;;4829885;29;20132;-93
2022/12/15 13:54:24;;;;;;;13.25;6.30;;;17.60;99.90;;;;;;4829158;29;20030;-94
2022/12/15 13:57:01;;;;;;;15.80;6.55;;;17.60;99.90;;;;;;4829248;29;20030;-91
2022/12/15 13:59:43;;;;;;;15.60;6.70;;;17.50;99.90;;;;;;4829156;29;20055;-92
2022/12/15 14:02:28;;;;;;;13.07;5.90;;;17.50;99.90;;;;;;4813290;29;20054;-92
2022/12/15 14:05:09;;;;;;;17.00;6.50;;;17.50;99.90;;;;;;4828983;29;20038;-90
2022/12/15 14:07:37;;;;;;;18.63;6.63;;;17.40;99.90;;;;;;4814061;29;20174;-92
2022/12/15 14:10:14;;;;;;;15.93;6.28;;;17.40;99.90;;;;;;4828843;29;20054;-90
2022/12/15 14:12:41;;;;;;;12.15;5.90;;;17.30;99.90;;;;;;4828930;29;20029;-91
2022/12/15 14:15:13;;;;;;;18.83;5.95;;;17.30;99.90;;;;;;4828745;29;20026;-91
2022/12/15 14:17:40;;;;;;;14.65;6.47;;;17.20;99.90;;;;;;4828751;29;20053;-91
2022/12/15 14:20:20;;;;;;;16.38;6.35;;;17.20;99.90;;;;;;4828825;29;20058;-92
2022/12/15 14:22:49;;;;;;;17.92;6.55;;;17.00;99.90;;;;;;4813695;29;20045;-90
2022/12/15 14:25:24;;;;;;;16.48;6.18;;;17.00;99.90;;;;;;4828782;29;20083;-91
2022/12/15 14:27:52;;;;;;;17.35;6.55;;;17.10;99.90;;;;;;4813888;29;20044;-93
2022/12/15 14:30:32;;;;;;;16.08;6.75;;;17.00;99.90;;;;;;4813613;29;20033;-90
2022/12/15 14:33:07;;;;;;;14.15;5.80;;;17.00;99.90;;;;;;4828622;29;20030;-91
2022/12/15 14:35:42;;;;;;;22.00;8.32;;;16.90;99.90;;;;;;4813471;29;20029;-92
2022/12/15 14:38:16;;;;;;;13.43;5.53;;;16.80;99.90;;;;;;4828518;29;20149;-91
2022/12/15 14:40:53;;;;;;;35.72;6.45;;;16.70;99.90;;;;;;4813388;29;20034;-93
2022/12/15 14:43:31;;;;;;;7.75;5.03;;;16.60;99.90;;;;;;4828706;29;20038;-94
2022/12/15 14:46:11;;;;;;;14.80;5.38;;;16.60;99.90;;;;;;4828396;29;20065;-93
2022/12/15 14:48:43;;;;;;;16.98;4.68;;;16.50;99.90;;;;;;4813344;29;20484;-91
2022/12/15 14:51:12;;;;;;;13.45;4.43;;;16.40;99.90;;;;;;4814189;29;20124;-91
2022/12/15 14:53:41;;;;;;;13.60;4.75;;;16.30;99.90;;;;;;4828590;29;20094;-90
2022/12/15 14:56:24;;;;;;;10.73;4.57;;;16.20;99.90;;;;;;4813247;29;20120;-90
2022/12/15 14:59:05;;;;;;;8.52;4.70;;;16.20;99.90;;;;;;4828198;29;20481;-93
2022/12/15 15:01:41;;;;;;;15.15;4.53;;;16.10;99.90;;;;;;4828246;29;20041;-91
2022/12/15 15:04:31;;;;;;;10.57;4.88;;;16.00;99.90;;;;;;4827917;29;20030;-93
2022/12/15 15:07:01;;;;;;;15.55;5.30;;;16.00;99.90;;;;;;4827941;29;20041;-90
2022/12/15 19:27:25;;;;;;;57.97;16.90;;;15.80;99.90;;;;;;4773487;30;20043;-91
2022/12/15 19:29:56;;;;;;;47.53;15.90;;;15.80;99.90;;;;;;4771336;30;20494;-94
2022/12/15 19:32:28;;;;;;;41.22;14.75;;;15.80;99.90;;;;;;4755518;30;20035;-93
2022/12/15 19:34:55;;;;;;;46.60;14.50;;;15.90;99.90;;;;;;4787409;29;20054;-93
2022/12/15 19:37:26;;;;;;;42.17;14.55;;;15.90;99.90;;;;;;4776758;30;20058;-93
2022/12/15 19:39:55;;;;;;;35.35;12.15;;;15.90;99.90;;;;;;4770308;30;20398;-92
2022/12/15 19:42:29;;;;;;;48.72;12.93;;;15.90;99.90;;;;;;4770074;30;20166;-93
2022/12/15 19:44:55;;;;;;;36.10;10.23;;;15.90;99.90;;;;;;4770472;30;20042;-93
2022/12/15 19:47:22;;;;;;;33.88;10.75;;;15.90;99.90;;;;;;4770626;30;20032;-94
2022/12/15 19:49:49;;;;;;;34.17;9.52;;;16.00;99.90;;;;;;4784913;29;20054;-92
2022/12/15 19:52:17;;;;;;;32.22;9.57;;;16.00;99.90;;;;;;4770043;30;20031;-93
2022/12/15 19:54:49;;;;;;;33.65;10.00;;;15.90;99.90;;;;;;4785079;29;20047;-93
2022/12/15 19:57:18;;;;;;;29.00;9.50;;;15.90;99.90;;;;;;4770393;30;20418;-92
2022/12/15 19:59:47;;;;;;;26.05;7.43;;;15.90;99.90;;;;;;4768669;30;20077;-93
2022/12/15 20:02:19;;;;;;;34.90;7.82;;;16.00;99.90;;;;;;4798491;29;20048;-93
2022/12/15 20:04:47;;;;;;;34.55;7.95;;;16.00;99.90;;;;;;4828139;29;20041;-93
2022/12/15 20:07:29;;;;;;;22.00;6.95;;;16.00;99.90;;;;;;4827372;29;20030;-93
2022/12/15 20:10:24;;;;;;;25.70;7.80;;;16.00;99.90;;;;;;4828172;29;20095;-94
2022/12/15 20:13:03;;;;;;;28.80;6.88;;;16.00;99.90;;;;;;4844270;29;20091;-94
2022/12/15 20:15:30;;;;;;;16.00;5.53;;;16.10;99.90;;;;;;4843722;29;20038;-93
2022/12/15 20:17:56;;;;;;;21.67;6.47;;;16.10;99.90;;;;;;4830742;29;20057;-93
2022/12/15 20:20:25;;;;;;;20.52;5.38;;;16.10;99.90;;;;;;4828489;29;20106;-93
2022/12/15 20:23:16;;;;;;;24.63;7.63;;;16.10;99.90;;;;;;4837141;29;20559;-92
2022/12/15 20:25:43;;;;;;;23.33;6.40;;;16.10;99.90;;;;;;4827783;29;20046;-93
2022/12/15 20:28:44;;;;;;;26.65;6.43;;;16.20;99.90;;;;;;4831807;29;20026;-92
2022/12/15 20:31:16;;;;;;;24.58;6.75;;;16.30;99.90;;;;;;4838171;29;20038;-92
2022/12/15 20:33:46;;;;;;;37.15;8.35;;;16.30;99.90;;;;;;4828893;29;20030;-93
2022/12/15 20:36:25;;;;;;;30.70;6.82;;;16.40;99.90;;;;;;4830475;29;20121;-93
2022/12/15 20:38:58;;;;;;;28.73;6.40;;;16.40;99.90;;;;;;4828828;29;20464;-94
2022/12/15 20:41:28;;;;;;;21.67;6.75;;;16.40;99.90;;;;;;4833998;29;20106;-89
2022/12/15 20:43:56;;;;;;;28.20;9.27;;;16.30;99.90;;;;;;4829625;29;20037;-92
2022/12/15 20:46:36;;;;;;;33.92;9.52;;;16.40;99.90;;;;;;4827501;29;20038;-93
2022/12/15 20:49:55;;;;;;;;;;;;;;;;;;;;;
2022/12/15 20:53:54;;;;;;;;;;;;;;;;;;;;;
2022/12/15 20:56:38;;;;;;;26.37;6.13;;;16.30;99.90;;;;;;4793845;29;20043;-94
2022/12/15 20:59:05;;;;;;;29.00;6.68;;;16.40;99.90;;;;;;4777426;30;20414;-93
2022/12/15 21:01:49;;;;;;;31.88;6.55;;;16.40;99.90;;;;;;4775941;29;20046;-93
2022/12/15 21:04:32;;;;;;;38.10;6.78;;;16.40;99.90;;;;;;4777656;30;20202;-93
2022/12/15 21:07:02;;;;;;;31.40;7.45;;;16.50;99.90;;;;;;4773871;30;20039;-92
2022/12/15 21:09:29;;;;;;;32.60;6.25;;;16.50;99.90;;;;;;4773484;30;20042;-94
2022/12/15 21:11:57;;;;;;;36.53;7.20;;;16.50;99.90;;;;;;4774637;30;20027;-93
2022/12/15 21:14:24;;;;;;;32.67;5.75;;;16.50;99.90;;;;;;4775278;30;20038;-92
2022/12/15 21:16:51;;;;;;;35.08;6.32;;;16.50;99.90;;;;;;4775431;30;20058;-92
2022/12/15 21:19:18;;;;;;;35.40;7.75;;;16.50;99.90;;;;;;4775389;30;20039;-92
2022/12/15 21:21:49;;;;;;;37.72;6.93;;;16.40;99.90;;;;;;4775379;30;20054;-93
2022/12/15 21:24:21;;;;;;;33.05;6.50;;;16.40;99.90;;;;;;4775229;30;20039;-93
2022/12/15 21:26:49;;;;;;;34.67;7.85;;;16.40;99.90;;;;;;4775392;30;20039;-92
2022/12/15 21:29:19;;;;;;;30.58;5.90;;;16.40;99.90;;;;;;4774874;30;20035;-92
2022/12/15 21:31:47;;;;;;;34.88;7.07;;;16.40;99.90;;;;;;4779948;29;20035;-92
2022/12/15 21:34:14;;;;;;;34.72;6.97;;;16.40;99.90;;;;;;4793451;29;20452;-92
2022/12/15 21:36:43;;;;;;;37.08;6.50;;;16.40;99.90;;;;;;4793870;29;20037;-92
2022/12/15 21:39:32;;;;;;;45.15;6.93;;;16.40;99.90;;;;;;4794599;29;20035;-92
2022/12/15 21:42:07;;;;;;;36.83;6.88;;;16.40;99.90;;;;;;4793861;29;20039;-92
2022/12/15 21:44:34;;;;;;;34.78;7.13;;;16.40;99.90;;;;;;4808355;29;20042;-92
2022/12/15 21:47:05;;;;;;;36.85;6.72;;;16.40;99.90;;;;;;4805081;29;20035;-93
2022/12/15 21:49:33;;;;;;;39.05;7.78;;;16.30;99.90;;;;;;4811532;29;20058;-93
2022/12/15 21:52:00;;;;;;;27.20;6.43;;;16.40;99.90;;;;;;4797117;29;20055;-92
2022/12/15 21:54:32;;;;;;;31.40;5.70;;;16.40;99.90;;;;;;4794083;29;20035;-91
2022/12/15 21:57:01;;;;;;;33.03;6.55;;;16.40;99.90;;;;;;4793422;29;20041;-91
2022/12/15 21:59:31;;;;;;;43.40;6.85;;;16.30;99.90;;;;;;4793926;29;20030;-91
2022/12/15 22:02:14;;;;;;;33.25;5.80;;;16.30;99.90;;;;;;4808207;29;20122;-91
2022/12/15 22:04:41;;;;;;;35.70;6.10;;;16.30;99.90;;;;;;4807883;29;20043;-92
2022/12/15 22:07:13;;;;;;;27.75;5.25;;;16.30;99.90;;;;;;4793091;29;20069;-92
2022/12/15 22:09:40;;;;;;;27.05;5.22;;;16.40;99.90;;;;;;4793073;29;20496;-92
2022/12/15 22:12:18;;;;;;;32.33;8.07;;;16.30;99.90;;;;;;4793117;29;20038;-92
2022/12/15 22:14:46;;;;;;;24.30;6.30;;;16.30;99.90;;;;;;4793348;29;20049;-93
2022/12/15 22:17:21;;;;;;;40.50;7.28;;;16.40;99.90;;;;;;4794878;29;20034;-91
2022/12/15 22:19:48;;;;;;;28.27;6.28;;;16.40;99.90;;;;;;4809680;29;20560;-92
2022/12/15 22:22:15;;;;;;;32.35;6.18;;;16.50;99.90;;;;;;4793267;29;20042;-93
2022/12/15 22:24:53;;;;;;;37.95;7.15;;;16.40;99.90;;;;;;4816130;29;20128;-93
2022/12/15 22:27:21;;;;;;;44.85;7.20;;;16.50;99.90;;;;;;4809377;29;20083;-92
2022/12/15 22:29:49;;;;;;;31.08;5.82;;;16.50;99.90;;;;;;4793092;29;20031;-90
2022/12/15 22:32:22;;;;;;;36.55;6.00;;;16.60;99.90;;;;;;4792757;29;20039;-92
2022/12/15 22:34:49;;;;;;;27.30;5.93;;;16.60;99.90;;;;;;4813615;29;20103;-93
2022/12/15 22:37:58;;;;;;;;;;;;;;;;;;;;;
2022/12/15 22:41:05;;;;;;;32.95;7.95;;;16.60;99.90;;;;;;4780539;30;20169;-93
